createdAt,value
2022-11-11T00:02:42.238Z,102381.22
2022-11-11T00:05:28.059Z,102378.41
2022-11-11T00:08:12.878Z,102372.75
2022-11-11T00:11:08.041Z,102366.25
2022-11-11T00:13:54.027Z,102363.53
2022-11-11T00:16:57.728Z,102356.56
2022-11-11T00:20:01.429Z,102350.34
2022-11-11T00:23:04.946Z,102365.03
2022-11-11T00:26:06.257Z,102361.00
2022-11-11T00:28:58.270Z,102361.47
2022-11-11T00:32:01.839Z,102362.34
2022-11-11T00:35:06.935Z,102367.41
2022-11-11T00:37:51.905Z,102368.09
2022-11-11T00:40:36.866Z,102372.03
2022-11-11T00:43:22.033Z,102370.22
2022-11-11T00:46:25.969Z,102382.09
2022-11-11T00:49:29.558Z,102394.13
2022-11-11T00:52:14.714Z,102401.00
2022-11-11T00:54:59.921Z,102414.28
2022-11-11T00:57:45.086Z,102410.03
2022-11-11T01:00:30.725Z,102407.28
2022-11-11T01:03:16.324Z,102395.63
2022-11-11T01:06:02.958Z,102397.59
2022-11-11T01:08:48.136Z,102393.75
2022-11-11T01:11:33.429Z,102391.78
2022-11-11T01:14:18.393Z,102383.97
2022-11-11T01:17:04.899Z,102382.66
2022-11-11T01:19:49.755Z,102388.22
2022-11-11T01:22:34.785Z,102396.00
2022-11-11T01:25:19.919Z,102401.47
2022-11-11T01:28:06.201Z,102403.06
2022-11-11T01:30:50.834Z,102399.97
2022-11-11T01:33:36.265Z,102402.78
2022-11-11T01:36:24.517Z,102404.88
2022-11-11T01:39:09.632Z,102420.16
2022-11-11T01:41:59.168Z,102411.88
2022-11-11T01:44:48.226Z,102414.81
2022-11-11T01:48:21.782Z,102410.28
2022-11-11T01:50:58.962Z,102415.44
2022-11-11T01:53:45.613Z,102423.34
2022-11-11T01:56:31.280Z,102416.28
2022-11-11T01:59:17.835Z,102416.28
2022-11-11T02:02:10.202Z,102420.16
2022-11-11T02:05:14.283Z,102411.69
2022-11-11T02:08:02.985Z,102411.16
2022-11-11T02:10:48.067Z,102412.03
2022-11-11T02:13:52.881Z,102413.72
2022-11-11T02:16:37.733Z,102413.16
2022-11-11T02:19:34.813Z,102414.75
2022-11-11T02:22:28.753Z,102415.41
2022-11-11T02:25:19.053Z,102418.94
2022-11-11T02:28:06.907Z,102404.00
2022-11-11T02:30:52.115Z,102407.00
2022-11-11T02:33:37.004Z,102410.38
2022-11-11T02:36:23.043Z,102414.34
2022-11-11T02:39:08.444Z,102422.78
2022-11-11T02:41:59.627Z,102417.09
2022-11-11T02:44:44.527Z,102413.16
2022-11-11T02:47:29.677Z,102412.19
2022-11-11T02:50:15.047Z,102410.19
2022-11-11T02:53:00.320Z,102408.00
2022-11-11T02:55:45.219Z,102410.78
2022-11-11T02:58:31.002Z,102406.66
2022-11-11T03:01:19.596Z,102405.25
2022-11-11T03:04:05.455Z,102399.28
2022-11-11T03:06:50.662Z,102394.22
2022-11-11T03:09:35.789Z,102395.22
2022-11-11T03:12:21.237Z,102405.31
2022-11-11T03:15:07.264Z,102404.09
2022-11-11T03:17:52.468Z,102405.81
2022-11-11T03:22:24.183Z,102400.72
2022-11-11T03:24:21.901Z,102413.38
2022-11-11T03:27:06.682Z,102416.09
2022-11-11T03:29:51.731Z,102425.50
2022-11-11T03:32:36.656Z,102429.25
2022-11-11T03:35:21.717Z,102419.19
2022-11-11T03:38:24.273Z,102422.56
2022-11-11T03:41:09.220Z,102413.97
2022-11-11T03:43:54.254Z,102421.72
2022-11-11T03:46:39.394Z,102413.16
2022-11-11T03:49:24.432Z,102419.84
2022-11-11T03:52:09.451Z,102420.13
2022-11-11T03:54:54.121Z,102419.28
2022-11-11T03:57:45.143Z,102419.38
2022-11-11T04:00:30.082Z,102416.13
2022-11-11T04:03:38.410Z,102416.50
2022-11-11T04:06:42.356Z,102420.13
2022-11-11T04:09:45.800Z,102420.63
2022-11-11T04:12:53.651Z,102430.03
2022-11-11T04:15:57.134Z,102423.91
2022-11-11T04:19:00.850Z,102421.28
2022-11-11T04:21:46.232Z,102426.38
2022-11-11T04:24:49.989Z,102432.59
2022-11-11T04:27:35.174Z,102421.13
2022-11-11T04:30:20.279Z,102423.16
2022-11-11T04:33:05.315Z,102422.75
2022-11-11T04:35:50.810Z,102412.16
2022-11-11T04:38:54.487Z,102408.94
2022-11-11T04:42:01.631Z,102402.84
2022-11-11T04:45:03.167Z,102403.25
2022-11-11T04:48:02.801Z,102413.78
2022-11-11T04:50:47.954Z,102411.56
2022-11-11T04:53:33.109Z,102418.44
2022-11-11T04:56:36.848Z,102422.34
2022-11-11T04:59:21.895Z,102422.50
2022-11-11T05:02:26.433Z,102422.75
2022-11-11T05:05:11.552Z,102430.13
2022-11-11T05:08:15.092Z,102429.44
2022-11-11T05:11:00.472Z,102428.50
2022-11-11T05:14:03.951Z,102428.41
2022-11-11T05:17:15.845Z,102421.88
2022-11-11T05:20:19.369Z,102422.47
2022-11-11T05:23:04.502Z,102435.09
2022-11-11T05:25:49.686Z,102442.41
2022-11-11T05:28:34.809Z,102438.06
2022-11-11T05:31:19.964Z,102434.53
2022-11-11T05:34:04.978Z,102420.28
2022-11-11T05:36:49.771Z,102423.91
2022-11-11T05:39:34.815Z,102430.53
2022-11-11T05:42:19.949Z,102422.91
2022-11-11T05:45:05.529Z,102423.31
2022-11-11T05:47:50.305Z,102425.19
2022-11-11T05:50:37.871Z,102431.38
2022-11-11T05:53:24.261Z,102432.81
2022-11-11T05:56:09.787Z,102435.28
2022-11-11T05:58:54.793Z,102434.19
2022-11-11T06:01:40.543Z,102434.03
2022-11-11T06:04:26.107Z,102438.44
2022-11-11T06:07:10.903Z,102449.88
2022-11-11T06:10:15.657Z,102453.84
2022-11-11T06:13:09.787Z,102456.41
2022-11-11T06:15:56.869Z,102458.94
2022-11-11T06:18:41.900Z,102463.59
2022-11-11T06:21:27.285Z,102462.47
2022-11-11T06:24:12.500Z,102466.19
2022-11-11T06:26:57.419Z,102469.41
2022-11-11T06:29:42.420Z,102477.91
2022-11-11T06:32:28.573Z,102475.44
2022-11-11T06:35:13.702Z,102473.91
2022-11-11T06:37:58.504Z,102482.72
2022-11-11T06:40:44.469Z,102490.13
2022-11-11T06:43:29.556Z,102489.59
2022-11-11T06:46:21.866Z,102497.16
2022-11-11T06:49:06.910Z,102496.25
2022-11-11T06:51:51.635Z,102502.00
2022-11-11T06:54:36.658Z,102502.59
2022-11-11T06:57:24.626Z,102506.91
2022-11-11T07:00:10.101Z,102497.94
2022-11-11T07:02:55.558Z,102499.88
2022-11-11T07:05:41.721Z,102512.94
2022-11-11T07:08:27.645Z,102514.47
2022-11-11T07:11:18.379Z,102513.91
2022-11-11T07:14:03.831Z,102508.75
2022-11-11T07:16:49.090Z,102509.66
2022-11-11T07:19:34.197Z,102509.66
2022-11-11T07:22:19.272Z,102509.78
2022-11-11T07:25:05.093Z,102508.75
2022-11-11T07:27:51.736Z,102511.81
2022-11-11T07:30:39.550Z,102524.69
2022-11-11T07:33:25.069Z,102518.41
2022-11-11T07:36:10.550Z,102522.47
2022-11-11T07:38:55.806Z,102515.34
2022-11-11T07:41:40.899Z,102516.03
2022-11-11T07:44:26.034Z,102509.59
2022-11-11T07:47:11.048Z,102515.72
2022-11-11T07:49:56.031Z,102524.03
2022-11-11T07:52:41.377Z,102526.91
2022-11-11T07:55:26.114Z,102527.22
2022-11-11T07:58:11.233Z,102528.75
2022-11-11T08:01:02.145Z,102542.78
2022-11-11T08:03:51.027Z,102535.03
2022-11-11T08:06:36.245Z,102539.66
2022-11-11T08:09:21.502Z,102541.84
2022-11-11T08:12:25.324Z,102549.28
2022-11-11T08:15:10.520Z,102549.50
2022-11-11T08:17:55.712Z,102550.53
2022-11-11T08:20:45.608Z,102555.31
2022-11-11T08:24:22.718Z,102556.38
2022-11-11T08:26:39.910Z,102552.72
2022-11-11T08:29:25.131Z,102566.09
2022-11-11T08:32:11.502Z,102555.38
2022-11-11T08:34:56.661Z,102554.81
2022-11-11T08:37:41.738Z,102550.66
2022-11-11T08:40:27.154Z,102560.53
2022-11-11T08:43:12.186Z,102560.91
2022-11-11T08:45:57.747Z,102556.56
2022-11-11T08:48:42.886Z,102562.22
2022-11-11T08:51:32.490Z,102561.06
2022-11-11T08:54:22.028Z,102565.28
2022-11-11T08:57:07.042Z,102567.69
2022-11-11T08:59:51.974Z,102567.00
2022-11-11T09:02:37.359Z,102565.56
2022-11-11T09:05:22.266Z,102561.19
2022-11-11T09:08:08.273Z,102558.34
2022-11-11T09:10:53.178Z,102562.19
2022-11-11T09:13:38.278Z,102560.81
2022-11-11T09:16:23.414Z,102553.63
2022-11-11T09:19:08.551Z,102551.22
2022-11-11T09:21:53.689Z,102558.53
2022-11-11T09:24:38.895Z,102554.63
2022-11-11T09:27:24.091Z,102552.19
2022-11-11T09:30:10.825Z,102548.59
2022-11-11T09:33:01.253Z,102559.91
2022-11-11T09:35:46.195Z,102558.41
2022-11-11T09:38:31.475Z,102558.72
2022-11-11T09:41:44.863Z,102569.63
2022-11-11T09:45:06.627Z,102562.28
2022-11-11T09:48:22.465Z,102572.19
2022-11-11T09:51:25.861Z,102563.44
2022-11-11T09:54:22.650Z,102562.75
2022-11-11T09:57:19.009Z,102559.63
2022-11-11T10:00:17.898Z,102559.09
2022-11-11T10:03:17.025Z,102559.88
2022-11-11T10:06:21.028Z,102551.50
2022-11-11T10:09:19.702Z,102556.47
2022-11-11T10:12:14.148Z,102551.84
2022-11-11T10:15:01.171Z,102555.47
2022-11-11T10:18:04.608Z,102543.34
2022-11-11T10:20:55.036Z,102544.97
2022-11-11T10:23:39.992Z,102535.22
2022-11-11T10:26:41.631Z,102542.59
2022-11-11T10:29:30.450Z,102545.13
2022-11-11T10:32:27.491Z,102547.88
2022-11-11T10:35:20.194Z,102544.53
2022-11-11T10:38:10.911Z,102540.66
2022-11-11T10:41:01.027Z,102546.44
2022-11-11T10:43:47.438Z,102534.97
2022-11-11T10:46:42.543Z,102539.28
2022-11-11T10:49:31.570Z,102544.69
2022-11-11T10:52:23.975Z,102541.69
2022-11-11T10:55:22.497Z,102535.03
2022-11-11T10:58:16.770Z,102532.94
2022-11-11T11:01:06.342Z,102539.28
2022-11-11T11:04:00.637Z,102534.38
2022-11-11T11:06:48.922Z,102525.66
2022-11-11T11:09:52.993Z,102530.03
2022-11-11T11:12:59.045Z,102523.97
2022-11-11T11:15:49.880Z,102525.44
2022-11-11T11:18:37.996Z,102522.91
2022-11-11T11:21:27.047Z,102522.41
2022-11-11T11:24:27.560Z,102516.94
2022-11-11T11:27:26.531Z,102518.13
2022-11-11T11:30:17.859Z,102519.59
2022-11-11T11:33:08.135Z,102510.34
2022-11-11T11:35:53.541Z,102506.69
2022-11-11T11:38:43.989Z,102511.50
2022-11-11T11:41:43.750Z,102515.19
2022-11-11T11:44:34.523Z,102507.38
2022-11-11T11:51:26.102Z,102507.66
2022-11-11T11:54:37.314Z,102503.47
2022-11-11T11:57:53.638Z,102507.13
2022-11-11T12:00:50.703Z,102499.97
2022-11-11T12:04:04.407Z,102492.59
2022-11-11T12:07:05.010Z,102496.84
2022-11-11T12:10:03.903Z,102502.84
2022-11-11T12:13:25.662Z,102495.25
2022-11-11T12:16:31.331Z,102491.38
2022-11-11T12:19:39.495Z,102484.66
2022-11-11T12:22:47.590Z,102486.84
2022-11-11T12:26:01.408Z,102472.69
2022-11-11T12:29:07.750Z,102475.13
2022-11-11T12:32:11.259Z,102479.94
2022-11-11T12:35:09.556Z,102469.53
2022-11-11T12:38:13.183Z,102477.91
2022-11-11T12:41:13.034Z,102462.06
2022-11-11T12:44:08.576Z,102459.44
2022-11-11T12:47:32.831Z,102454.97
2022-11-11T12:50:35.754Z,102457.22
2022-11-11T12:54:00.960Z,102454.53
2022-11-11T12:56:57.722Z,102454.94
2022-11-11T12:59:59.448Z,102452.69
2022-11-11T13:03:21.958Z,102452.25
2022-11-11T13:06:25.590Z,102449.91
2022-11-11T13:09:37.562Z,102445.78
2022-11-11T13:12:35.454Z,102446.91
2022-11-11T13:15:25.928Z,102449.28
2022-11-11T13:18:15.624Z,102446.41
2022-11-11T13:21:06.158Z,102451.34
2022-11-11T13:23:52.674Z,102451.97
2022-11-11T13:26:43.766Z,102442.25
2022-11-11T13:29:52.998Z,102449.91
2022-11-11T13:32:47.744Z,102442.66
2022-11-11T13:35:40.752Z,102440.84
2022-11-11T13:38:30.369Z,102433.50
2022-11-11T13:41:25.493Z,102439.34
2022-11-11T13:44:24.215Z,102438.44
2022-11-11T13:47:18.229Z,102442.72
2022-11-11T13:50:08.122Z,102435.50
2022-11-11T13:53:25.337Z,102435.22
2022-11-11T13:56:11.696Z,102440.16
2022-11-11T13:58:58.236Z,102442.00
2022-11-11T14:01:43.257Z,102434.94
2022-11-11T14:04:28.270Z,102434.38
2022-11-11T14:07:47.013Z,102422.22
2022-11-11T14:10:36.172Z,102429.97
2022-11-11T14:13:20.997Z,102430.78
2022-11-11T14:16:10.197Z,102429.97
2022-11-11T14:18:55.391Z,102429.66
2022-11-11T14:21:48.631Z,102440.22
2022-11-11T14:24:41.798Z,102428.00
2022-11-11T14:27:30.468Z,102429.28
2022-11-11T14:30:48.034Z,102433.19
2022-11-11T14:33:57.693Z,102436.72
2022-11-11T14:36:50.907Z,102424.66
2022-11-11T14:39:42.628Z,102437.56
2022-11-11T14:42:44.648Z,102436.00
2022-11-11T14:45:32.567Z,102441.75
2022-11-11T14:48:48.617Z,102437.97
2022-11-11T14:51:46.951Z,102443.03
2022-11-11T14:54:48.730Z,102445.53
2022-11-11T14:57:40.789Z,102437.38
2022-11-11T15:00:49.135Z,102436.19
2022-11-11T15:03:54.846Z,102454.75
2022-11-11T15:06:46.459Z,102443.06
2022-11-11T15:09:52.243Z,102443.91
2022-11-11T15:13:08.767Z,102451.56
2022-11-11T15:16:23.704Z,102432.25
2022-11-11T15:19:14.220Z,102446.63
2022-11-11T15:22:20.745Z,102437.91
2022-11-11T15:25:37.295Z,102437.31
2022-11-11T15:28:43.921Z,102441.38
2022-11-11T15:31:42.496Z,102434.91
2022-11-11T15:34:46.641Z,102432.59
2022-11-11T15:37:32.129Z,102434.41
2022-11-11T15:41:09.610Z,102439.72
2022-11-11T15:43:54.822Z,102438.03
2022-11-11T15:46:42.528Z,102441.34
2022-11-11T15:49:45.074Z,102450.56
2022-11-11T15:52:33.061Z,102450.56
2022-11-11T15:55:24.409Z,102446.22
2022-11-11T15:58:30.351Z,102447.78
2022-11-11T16:01:16.356Z,102446.34
2022-11-11T16:04:01.309Z,102455.16
2022-11-11T16:06:47.694Z,102456.59
2022-11-11T16:09:32.826Z,102459.34
2022-11-11T16:12:27.140Z,102456.03
2022-11-11T16:15:22.727Z,102457.34
2022-11-11T16:18:23.418Z,102456.06
2022-11-11T16:21:18.519Z,102456.34
2022-11-11T16:24:04.108Z,102454.88
2022-11-11T16:26:49.227Z,102453.50
2022-11-11T16:29:37.569Z,102457.97
2022-11-11T16:32:25.316Z,102461.88
2022-11-11T16:35:25.409Z,102461.72
2022-11-11T16:38:10.142Z,102454.69
2022-11-11T16:40:55.315Z,102461.47
2022-11-11T16:43:43.572Z,102457.59
2022-11-11T16:46:37.428Z,102457.31
2022-11-11T16:49:28.682Z,102459.16
2022-11-11T16:52:18.255Z,102464.06
2022-11-11T16:55:03.362Z,102460.56
2022-11-11T16:57:48.949Z,102462.50
2022-11-11T17:00:34.283Z,102465.25
2022-11-11T17:03:26.894Z,102455.84
2022-11-11T17:06:11.885Z,102454.69
2022-11-11T17:08:57.184Z,102453.94
2022-11-11T17:11:44.676Z,102450.03
2022-11-11T17:14:33.933Z,102457.22
2022-11-11T17:17:19.290Z,102462.31
2022-11-11T17:20:10.787Z,102462.06
2022-11-11T17:22:57.598Z,102469.66
2022-11-11T17:25:42.545Z,102470.72
2022-11-11T17:28:31.653Z,102468.81
2022-11-11T17:31:16.674Z,102466.34
2022-11-11T17:34:06.184Z,102452.63
2022-11-11T17:36:51.597Z,102460.66
2022-11-11T17:39:36.532Z,102471.09
2022-11-11T17:42:21.619Z,102468.31
2022-11-11T17:45:07.624Z,102469.78
2022-11-11T17:47:55.034Z,102466.41
2022-11-11T17:50:40.251Z,102470.50
2022-11-11T17:53:26.258Z,102469.25
2022-11-11T17:56:11.203Z,102472.88
2022-11-11T17:58:56.361Z,102471.34
2022-11-11T18:01:41.588Z,102481.59
2022-11-11T18:04:26.582Z,102474.66
2022-11-11T18:07:11.718Z,102482.63
2022-11-11T18:09:56.636Z,102477.59
2022-11-11T18:12:41.830Z,102483.13
2022-11-11T18:15:26.709Z,102481.78
2022-11-11T18:18:11.809Z,102489.72
2022-11-11T18:21:06.327Z,102490.69
2022-11-11T18:23:51.905Z,102486.59
2022-11-11T18:26:40.013Z,102488.94
2022-11-11T18:29:25.886Z,102494.41
2022-11-11T18:32:10.870Z,102502.44
2022-11-11T18:34:55.970Z,102500.06
2022-11-11T18:37:46.186Z,102506.56
2022-11-11T18:40:31.536Z,102500.38
2022-11-11T18:43:16.586Z,102503.94
2022-11-11T18:46:06.754Z,102504.97
2022-11-11T18:49:02.621Z,102512.13
2022-11-11T18:51:47.551Z,102509.78
2022-11-11T18:54:32.401Z,102511.47
2022-11-11T18:57:17.452Z,102509.97
2022-11-11T19:00:03.733Z,102504.72
2022-11-11T19:02:48.852Z,102506.00
2022-11-11T19:05:34.040Z,102498.28
2022-11-11T19:08:19.003Z,102508.84
2022-11-11T19:11:06.215Z,102507.06
2022-11-11T19:13:51.392Z,102501.34
2022-11-11T19:16:36.566Z,102505.75
2022-11-11T19:19:21.774Z,102508.09
2022-11-11T19:22:06.955Z,102509.59
2022-11-11T19:24:51.881Z,102518.53
2022-11-11T19:27:37.082Z,102521.53
2022-11-11T19:30:22.145Z,102525.31
2022-11-11T19:33:07.507Z,102523.50
2022-11-11T19:35:57.491Z,102521.72
2022-11-11T19:38:42.806Z,102528.03
2022-11-11T19:41:30.330Z,102525.31
2022-11-11T19:44:15.196Z,102527.47
2022-11-11T19:47:00.169Z,102526.22
2022-11-11T19:49:45.196Z,102514.38
2022-11-11T19:52:30.323Z,102512.81
2022-11-11T19:55:15.385Z,102523.19
2022-11-11T19:58:00.334Z,102520.38
2022-11-11T20:00:45.486Z,102526.97
2022-11-11T20:03:32.097Z,102523.94
2022-11-11T20:06:32.409Z,102533.16
2022-11-11T20:09:17.201Z,102540.94
2022-11-11T20:12:02.406Z,102533.78
2022-11-11T20:14:47.825Z,102538.53
2022-11-11T20:17:32.692Z,102537.31
2022-11-11T20:20:17.819Z,102530.16
2022-11-11T20:23:06.449Z,102539.41
2022-11-11T20:25:52.487Z,102534.25
2022-11-11T20:28:38.858Z,102537.78
2022-11-11T20:31:25.120Z,102536.22
2022-11-11T20:34:10.070Z,102544.88
2022-11-11T20:36:55.103Z,102542.00
2022-11-11T20:39:40.008Z,102540.06
2022-11-11T20:42:25.165Z,102540.22
2022-11-11T20:45:12.475Z,102539.97
2022-11-11T20:47:57.827Z,102541.50
2022-11-11T20:50:42.763Z,102544.72
2022-11-11T20:53:28.342Z,102541.31
2022-11-11T20:56:22.237Z,102544.38
2022-11-11T20:59:08.893Z,102541.25
2022-11-11T21:01:54.300Z,102545.84
2022-11-11T21:04:39.156Z,102547.97
2022-11-11T21:07:24.342Z,102549.00
2022-11-11T21:10:09.602Z,102550.16
2022-11-11T21:12:54.828Z,102545.59
2022-11-11T21:15:39.758Z,102544.50
2022-11-11T21:18:24.957Z,102542.06
2022-11-11T21:21:28.612Z,102553.53
2022-11-11T21:24:13.533Z,102548.28
2022-11-11T21:26:58.384Z,102545.31
2022-11-11T21:29:43.435Z,102549.63
2022-11-11T21:32:28.658Z,102552.28
2022-11-11T21:35:13.749Z,102553.34
2022-11-11T21:37:58.598Z,102556.84
2022-11-11T21:40:44.609Z,102558.88
2022-11-11T21:43:29.740Z,102570.00
2022-11-11T21:46:17.439Z,102573.81
2022-11-11T21:49:03.258Z,102565.16
2022-11-11T21:51:48.503Z,102560.81
2022-11-11T21:54:33.738Z,102557.97
2022-11-11T21:57:18.767Z,102564.19
2022-11-11T22:00:04.502Z,102562.75
2022-11-11T22:02:49.298Z,102566.22
2022-11-11T22:05:34.597Z,102568.09
2022-11-11T22:08:19.723Z,102570.56
2022-11-11T22:11:07.408Z,102556.84
2022-11-11T22:13:52.577Z,102562.84
2022-11-11T22:16:37.953Z,102557.59
2022-11-11T22:19:23.190Z,102555.22
2022-11-11T22:22:08.197Z,102555.59
2022-11-11T22:24:53.163Z,102555.25
2022-11-11T22:27:38.422Z,102556.53
2022-11-11T22:30:23.505Z,102571.13
2022-11-11T22:33:08.721Z,102572.28
2022-11-11T22:35:53.577Z,102573.13
2022-11-11T22:38:39.519Z,102578.00
2022-11-11T22:41:27.324Z,102578.34
2022-11-11T22:44:12.325Z,102577.09
2022-11-11T22:46:57.187Z,102585.00
2022-11-11T22:49:42.316Z,102580.56
2022-11-11T22:52:27.264Z,102581.34
2022-11-11T22:55:12.415Z,102577.53
2022-11-11T22:57:58.027Z,102575.06
2022-11-11T23:00:42.811Z,102575.47
2022-11-11T23:03:27.799Z,102578.50
2022-11-11T23:06:15.996Z,102585.88
2022-11-11T23:09:00.986Z,102583.41
2022-11-11T23:11:46.138Z,102592.22
2022-11-11T23:14:31.182Z,102583.47
2022-11-11T23:17:16.174Z,102580.78
2022-11-11T23:20:01.232Z,102574.50
2022-11-11T23:22:46.273Z,102569.50
2022-11-11T23:25:33.883Z,102575.00
2022-11-11T23:28:20.429Z,102578.63
2022-11-11T23:31:17.215Z,102574.63
2022-11-11T23:34:03.284Z,102577.88
2022-11-11T23:36:48.469Z,102581.56
2022-11-11T23:39:33.260Z,102583.38
2022-11-11T23:42:18.298Z,102585.91
2022-11-11T23:45:03.466Z,102578.63
2022-11-11T23:47:48.284Z,102576.38
2022-11-11T23:50:33.227Z,102584.06
2022-11-11T23:53:18.767Z,102577.91
2022-11-11T23:56:04.416Z,102574.19
2022-11-11T23:58:49.282Z,102570.88
